Time;durP1;ratioP1;P1;durP2;ratioP2;P2;SDS_P1;SDS_P2;PMS_P1;PMS_P2;Temp;Humidity;BMP_temperature;BMP_pressure;BME280_temperature;BME280_humidity;BME280_pressure;Samples;Min_cycle;Max_cycle;Signal;HPM_P1;HPM_P2
2021/01/23 00:02:01;;;;;;;1.90;1.67;;;15.30;57.00;;;;;;5031386;28;20380;-49
2021/01/23 00:04:27;;;;;;;4.43;1.90;;;15.30;57.00;;;;;;5031315;28;20026;-46
2021/01/23 00:06:52;;;;;;;2.65;1.60;;;15.30;57.00;;;;;;5030176;28;20057;-46
2021/01/23 00:09:18;;;;;;;2.42;1.55;;;15.30;57.10;;;;;;5031201;28;20021;-46
2021/01/23 00:11:44;;;;;;;2.83;1.70;;;15.20;57.00;;;;;;5034637;28;20104;-46
2021/01/23 00:14:09;;;;;;;2.15;1.45;;;15.20;57.00;;;;;;5035506;28;20025;-47
2021/01/23 00:16:35;;;;;;;3.15;2.13;;;15.20;57.10;;;;;;5036129;28;20022;-47
2021/01/23 00:19:00;;;;;;;3.70;2.03;;;15.20;57.10;;;;;;5034902;28;20045;-47
2021/01/23 00:21:26;;;;;;;4.78;2.42;;;15.10;57.10;;;;;;5035140;28;20053;-46
2021/01/23 00:23:51;;;;;;;4.57;1.83;;;15.10;57.00;;;;;;5035148;28;20025;-47
2021/01/23 00:26:17;;;;;;;2.70;1.98;;;15.10;57.10;;;;;;5034941;28;20041;-46
2021/01/23 00:28:42;;;;;;;2.90;1.73;;;15.20;57.10;;;;;;5034979;28;20053;-46
2021/01/23 00:31:08;;;;;;;2.53;1.80;;;15.10;57.10;;;;;;5034831;28;20025;-46
2021/01/23 00:33:34;;;;;;;3.00;1.83;;;15.10;57.10;;;;;;5034952;28;20026;-46
2021/01/23 00:35:59;;;;;;;2.40;1.70;;;15.10;57.10;;;;;;5035111;28;20025;-46
2021/01/23 00:38:25;;;;;;;3.53;1.83;;;15.10;57.10;;;;;;5034971;28;20457;-46
2021/01/23 00:40:51;;;;;;;1.65;1.40;;;15.00;57.10;;;;;;5034710;28;20586;-46
2021/01/23 00:43:16;;;;;;;2.90;1.60;;;15.00;57.20;;;;;;5034958;28;20036;-46
2021/01/23 00:45:42;;;;;;;4.07;2.00;;;15.00;57.20;;;;;;5034558;28;20061;-46
2021/01/23 00:48:11;;;;;;;2.35;1.70;;;15.00;57.20;;;;;;5034652;28;20040;-46
2021/01/23 00:50:37;;;;;;;4.35;1.70;;;15.00;57.20;;;;;;5034524;28;20021;-48
2021/01/23 00:53:04;;;;;;;2.20;1.60;;;15.00;57.30;;;;;;5034860;28;20028;-46
2021/01/23 00:55:29;;;;;;;5.82;2.00;;;14.90;57.20;;;;;;5034428;28;20474;-46
2021/01/23 00:57:55;;;;;;;3.42;1.88;;;14.90;57.20;;;;;;5034660;28;20020;-46
2021/01/23 01:00:21;;;;;;;1.83;1.50;;;15.10;57.40;;;;;;5034516;28;20021;-46
2021/01/23 01:02:47;;;;;;;2.45;1.80;;;14.90;57.20;;;;;;5034505;28;20033;-46
2021/01/23 01:05:13;;;;;;;3.30;2.10;;;14.90;57.30;;;;;;5034221;28;20034;-46
2021/01/23 01:07:38;;;;;;;2.72;2.00;;;14.90;57.30;;;;;;5034192;28;20026;-46
2021/01/23 01:10:05;;;;;;;2.67;1.92;;;14.90;57.30;;;;;;5034495;28;20052;-47
2021/01/23 01:12:30;;;;;;;3.60;1.98;;;14.90;57.40;;;;;;5034324;28;20365;-46
2021/01/23 01:14:56;;;;;;;3.33;2.13;;;14.80;57.30;;;;;;5034074;28;20022;-46
2021/01/23 01:17:23;;;;;;;2.80;1.60;;;14.80;57.30;;;;;;5035006;28;20132;-47
2021/01/23 01:19:48;;;;;;;2.85;1.95;;;14.80;57.30;;;;;;5034344;28;20048;-46
2021/01/23 01:22:14;;;;;;;5.20;2.40;;;14.80;57.30;;;;;;5033583;28;20480;-46
2021/01/23 01:24:39;;;;;;;2.10;1.52;;;14.80;57.30;;;;;;5033908;28;20032;-47
2021/01/23 01:27:05;;;;;;;2.95;1.90;;;14.80;57.30;;;;;;5033854;28;20040;-46
2021/01/23 01:29:30;;;;;;;2.88;1.88;;;14.80;57.30;;;;;;5034233;28;20105;-46
2021/01/23 01:31:56;;;;;;;1.90;1.55;;;14.70;57.30;;;;;;5033688;28;20037;-47
2021/01/23 01:34:21;;;;;;;2.10;1.50;;;14.70;57.30;;;;;;5033494;28;20029;-46
2021/01/23 01:36:47;;;;;;;3.55;1.60;;;14.70;57.40;;;;;;5033213;28;20232;-47
2021/01/23 01:39:12;;;;;;;2.53;2.00;;;14.70;57.40;;;;;;5033061;28;20018;-47
2021/01/23 01:41:39;;;;;;;3.17;2.17;;;14.70;57.40;;;;;;5033938;28;20021;-48
2021/01/23 01:44:06;;;;;;;3.33;1.85;;;14.70;57.40;;;;;;5033932;28;20022;-46
2021/01/23 01:46:33;;;;;;;2.28;1.70;;;14.70;57.40;;;;;;5033728;28;20037;-46
2021/01/23 01:49:01;;;;;;;1.67;1.33;;;14.70;57.40;;;;;;5033500;28;20473;-49
2021/01/23 01:51:26;;;;;;;2.47;1.90;;;14.70;57.40;;;;;;5034007;28;20391;-45
2021/01/23 01:53:53;;;;;;;3.78;2.42;;;14.70;57.50;;;;;;5032840;28;20025;-46
2021/01/23 01:56:18;;;;;;;2.85;2.00;;;14.60;57.40;;;;;;5033470;28;20028;-46
2021/01/23 01:58:44;;;;;;;2.17;1.77;;;14.60;57.40;;;;;;5033550;28;20033;-46
2021/01/23 02:01:09;;;;;;;2.40;1.85;;;14.60;57.40;;;;;;5033860;28;20026;-46
2021/01/23 02:04:01;;;;;;;2.25;1.52;;;14.60;57.50;;;;;;5033394;28;20021;-46
2021/01/23 02:06:49;;;;;;;4.35;2.22;;;14.60;57.40;;;;;;5033114;28;20475;-45
2021/01/23 02:09:17;;;;;;;3.85;1.95;;;14.50;57.40;;;;;;5033251;28;20495;-46
2021/01/23 02:12:04;;;;;;;4.35;2.10;;;14.50;57.40;;;;;;5032948;28;20028;-47
2021/01/23 02:14:45;;;;;;;2.78;1.88;;;14.50;57.40;;;;;;5033074;28;20036;-45
2021/01/23 02:17:14;;;;;;;4.10;2.30;;;14.50;57.50;;;;;;5015728;28;20037;-45
2021/01/23 02:20:09;;;;;;;1.60;1.35;;;14.50;57.50;;;;;;5033246;28;20087;-45
2021/01/23 02:22:49;;;;;;;2.00;1.65;;;14.50;57.50;;;;;;5032998;28;20053;-46
2021/01/23 02:25:18;;;;;;;4.00;2.05;;;14.50;57.50;;;;;;5032980;28;20061;-46
2021/01/23 02:27:55;;;;;;;2.45;1.58;;;14.50;57.50;;;;;;5033067;28;20030;-46
2021/01/23 02:30:46;;;;;;;2.38;1.80;;;14.50;57.50;;;;;;5032759;28;20025;-46
2021/01/23 02:33:14;;;;;;;3.60;2.08;;;14.50;57.50;;;;;;4968919;28;20038;-47
2021/01/23 02:35:42;;;;;;;2.25;1.58;;;14.50;57.60;;;;;;5032363;28;20029;-46
2021/01/23 02:38:08;;;;;;;2.33;1.60;;;14.40;57.50;;;;;;5032811;28;20029;-47
2021/01/23 02:40:34;;;;;;;2.35;1.90;;;14.40;57.60;;;;;;5032695;28;20365;-46
2021/01/23 02:43:00;;;;;;;2.53;1.85;;;14.40;57.60;;;;;;5031916;28;20117;-46
2021/01/23 02:45:26;;;;;;;2.38;1.70;;;14.40;57.60;;;;;;5032644;28;20187;-45
2021/01/23 02:47:51;;;;;;;3.40;1.98;;;14.40;57.60;;;;;;5032405;28;20079;-45
2021/01/23 02:50:17;;;;;;;1.85;1.60;;;14.40;57.60;;;;;;5032758;28;20159;-46
2021/01/23 02:53:05;;;;;;;2.50;1.80;;;14.40;57.60;;;;;;5032345;28;20033;-47
2021/01/23 02:55:33;;;;;;;2.33;1.73;;;14.40;57.60;;;;;;5032636;28;20148;-46
2021/01/23 02:58:02;;;;;;;2.60;1.95;;;14.30;57.60;;;;;;5032225;28;20032;-46
2021/01/23 03:00:31;;;;;;;2.38;1.73;;;14.30;57.70;;;;;;5032153;28;20481;-46
2021/01/23 03:02:59;;;;;;;2.67;1.75;;;14.40;57.70;;;;;;5031647;28;20025;-45
2021/01/23 03:05:26;;;;;;;1.80;1.60;;;14.30;57.70;;;;;;5032379;28;20052;-46
2021/01/23 03:07:53;;;;;;;2.90;1.80;;;14.30;57.70;;;;;;5032363;28;20100;-46
2021/01/23 03:10:42;;;;;;;1.98;1.63;;;14.10;57.60;;;;;;5032366;28;20021;-46
2021/01/23 03:13:09;;;;;;;2.70;2.50;;;14.20;57.70;;;;;;5032165;28;20112;-46
2021/01/23 03:15:35;;;;;;;1.92;1.60;;;14.30;57.70;;;;;;5032473;28;20013;-46
2021/01/23 03:18:01;;;;;;;2.05;1.67;;;14.30;57.70;;;;;;5032666;28;20049;-47
2021/01/23 03:20:27;;;;;;;2.42;1.60;;;14.30;57.70;;;;;;5032181;28;20088;-47
2021/01/23 03:22:54;;;;;;;3.53;1.92;;;14.20;57.70;;;;;;5032118;28;20480;-46
2021/01/23 03:25:19;;;;;;;3.80;1.60;;;14.20;57.70;;;;;;5032020;28;20049;-47
2021/01/23 03:27:45;;;;;;;2.20;1.58;;;14.20;58.00;;;;;;5032087;28;20072;-47
2021/01/23 03:30:11;;;;;;;2.92;1.88;;;14.20;57.70;;;;;;5032121;28;20104;-45
2021/01/23 03:32:37;;;;;;;2.35;1.80;;;14.20;57.70;;;;;;5031653;28;20464;-46
2021/01/23 03:35:05;;;;;;;2.05;1.80;;;14.20;57.70;;;;;;5031691;28;20028;-46
2021/01/23 03:37:32;;;;;;;3.40;1.67;;;13.90;76.50;;;;;;5031574;28;20244;-46
2021/01/23 03:39:57;;;;;;;2.88;1.73;;;14.20;57.80;;;;;;5031258;28;20021;-46
2021/01/23 03:42:23;;;;;;;2.70;1.77;;;14.20;57.80;;;;;;5031656;28;20029;-48
2021/01/23 03:44:48;;;;;;;2.20;2.00;;;14.20;57.80;;;;;;5032013;28;20031;-47
2021/01/23 03:47:14;;;;;;;2.97;2.15;;;14.20;57.80;;;;;;5035985;28;20037;-48
2021/01/23 03:49:40;;;;;;;3.70;1.92;;;14.10;57.80;;;;;;5035193;28;20108;-46
2021/01/23 03:52:06;;;;;;;2.65;1.77;;;13.90;57.60;;;;;;5035951;28;20026;-47
2021/01/23 03:54:31;;;;;;;2.25;1.75;;;14.10;57.80;;;;;;5035603;28;20068;-46
2021/01/23 03:56:57;;;;;;;3.05;1.77;;;14.10;57.80;;;;;;5035892;28;20029;-46
2021/01/23 03:59:23;;;;;;;2.90;1.70;;;14.10;57.90;;;;;;5035532;28;20026;-46
2021/01/23 04:01:49;;;;;;;3.92;1.50;;;;;;;;;;5035897;28;20040;-46
2021/01/23 04:04:15;;;;;;;2.60;1.70;;;14.10;57.30;;;;;;5035792;28;20049;-47
2021/01/23 04:06:41;;;;;;;2.72;1.63;;;14.00;57.80;;;;;;5035575;28;20064;-47
2021/01/23 04:09:07;;;;;;;1.90;1.70;;;14.10;57.90;;;;;;5035657;28;20021;-47
2021/01/23 04:11:33;;;;;;;1.70;1.50;;;14.10;57.90;;;;;;5035406;28;20676;-45
2021/01/23 04:13:58;;;;;;;1.83;1.50;;;14.10;57.90;;;;;;5035603;28;20048;-47
2021/01/23 04:16:24;;;;;;;2.30;1.98;;;14.10;58.00;;;;;;5035283;28;20032;-47
2021/01/23 04:18:49;;;;;;;2.47;1.65;;;14.00;57.90;;;;;;5035953;28;20060;-47
2021/01/23 04:21:15;;;;;;;2.05;1.50;;;14.00;57.90;;;;;;5035455;28;20112;-46
2021/01/23 04:23:41;;;;;;;3.33;1.70;;;14.00;57.90;;;;;;5035115;28;20160;-46
2021/01/23 04:26:06;;;;;;;1.92;1.30;;;14.00;57.90;;;;;;5034950;28;20042;-46
2021/01/23 04:28:32;;;;;;;1.40;1.13;;;14.00;57.90;;;;;;5035012;28;20022;-46
2021/01/23 04:30:57;;;;;;;2.55;1.60;;;14.00;57.90;;;;;;5035253;28;20116;-46
2021/01/23 04:33:23;;;;;;;3.03;1.38;;;14.00;58.00;;;;;;5035206;28;20113;-46
2021/01/23 04:35:49;;;;;;;1.73;1.45;;;13.80;57.90;;;;;;5035025;28;20123;-45
2021/01/23 04:38:14;;;;;;;2.60;1.52;;;14.00;58.00;;;;;;5034618;28;20033;-46
2021/01/23 04:40:40;;;;;;;1.75;1.63;;;13.90;58.00;;;;;;5034639;28;20034;-46
2021/01/23 04:43:08;;;;;;;2.30;1.58;;;13.90;57.90;;;;;;5035088;28;20030;-45
2021/01/23 04:45:34;;;;;;;2.85;1.70;;;14.00;58.00;;;;;;5034964;28;20454;-45
2021/01/23 04:47:59;;;;;;;1.70;1.60;;;14.00;58.00;;;;;;5034946;28;20113;-46
2021/01/23 04:50:25;;;;;;;2.05;1.58;;;13.90;58.00;;;;;;5034678;28;20099;-46
2021/01/23 04:52:51;;;;;;;1.73;1.60;;;13.90;58.00;;;;;;5034622;28;20060;-46
2021/01/23 04:55:16;;;;;;;3.08;1.67;;;13.90;58.00;;;;;;5034880;28;20022;-46
2021/01/23 04:57:43;;;;;;;1.95;1.70;;;13.90;58.00;;;;;;5033459;28;20404;-46
2021/01/23 05:00:10;;;;;;;1.77;1.42;;;13.90;58.00;;;;;;5034744;28;20037;-46
2021/01/23 05:02:36;;;;;;;1.30;1.20;;;13.90;58.00;;;;;;5034607;28;20101;-46
2021/01/23 05:05:03;;;;;;;2.92;1.30;;;13.80;58.00;;;;;;5034677;28;20449;-46
2021/01/23 05:07:37;;;;;;;1.63;1.33;;;13.90;58.10;;;;;;5034342;28;20026;-46
2021/01/23 05:10:28;;;;;;;2.67;1.52;;;13.80;58.00;;;;;;5034625;28;20040;-48
2021/01/23 05:13:01;;;;;;;1.73;1.52;;;13.80;58.00;;;;;;5034535;28;20379;-49
2021/01/23 05:15:33;;;;;;;1.70;1.60;;;13.70;58.00;;;;;;5034351;28;20484;-46
2021/01/23 05:18:04;;;;;;;1.98;1.58;;;13.90;58.10;;;;;;5035181;28;20053;-47
2021/01/23 05:20:47;;;;;;;1.80;1.30;;;13.80;58.10;;;;;;5034476;28;20395;-46
2021/01/23 05:23:16;;;;;;;1.80;1.40;;;13.80;58.10;;;;;;5034387;28;20045;-46
2021/01/23 05:25:44;;;;;;;1.98;1.52;;;13.80;58.10;;;;;;5034054;28;20037;-46
2021/01/23 05:28:12;;;;;;;2.28;1.48;;;14.10;58.30;;;;;;5034088;28;20013;-47
2021/01/23 05:30:50;;;;;;;2.00;1.80;;;13.70;58.10;;;;;;5034051;28;20053;-48
2021/01/23 05:33:21;;;;;;;4.10;1.83;;;13.80;58.10;;;;;;5034193;28;20427;-47
2021/01/23 05:36:08;;;;;;;2.13;1.38;;;13.70;58.10;;;;;;5016315;28;20112;-47
2021/01/23 05:38:35;;;;;;;1.25;1.10;;;13.70;58.10;;;;;;5033910;28;20033;-47
2021/01/23 05:41:03;;;;;;;1.80;1.55;;;13.80;58.20;;;;;;5034158;28;20112;-47
2021/01/23 05:43:40;;;;;;;1.73;1.20;;;13.70;58.20;;;;;;5033934;28;20380;-47
2021/01/23 05:46:10;;;;;;;1.60;1.20;;;13.70;58.20;;;;;;5034002;28;20379;-46
2021/01/23 05:48:39;;;;;;;1.98;1.25;;;13.70;58.20;;;;;;5033968;28;20467;-47
2021/01/23 05:51:05;;;;;;;2.08;1.33;;;13.40;58.10;;;;;;5033813;28;20022;-47
2021/01/23 05:53:31;;;;;;;1.83;1.35;;;13.70;58.30;;;;;;5016238;28;20024;-46
2021/01/23 05:56:00;;;;;;;2.53;1.13;;;13.70;58.30;;;;;;5033843;28;20025;-46
2021/01/23 05:58:30;;;;;;;3.00;1.70;;;13.70;58.30;;;;;;5033785;28;20018;-46
2021/01/23 06:00:57;;;;;;;1.77;1.10;;;13.70;58.30;;;;;;5033766;28;20421;-46
2021/01/23 06:03:26;;;;;;;2.65;1.13;;;13.70;58.30;;;;;;5033461;28;20651;-47
2021/01/23 06:05:54;;;;;;;1.55;1.02;;;13.70;58.60;;;;;;5033566;28;20065;-46
2021/01/23 06:08:55;;;;;;;1.65;1.40;;;13.80;58.80;;;;;;5033329;28;20025;-46
2021/01/23 06:11:20;;;;;;;1.63;0.90;;;13.90;58.60;;;;;;4933607;29;20028;-48
2021/01/23 06:13:56;;;;;;;1.60;1.10;;;13.90;58.50;;;;;;5017277;28;20157;-48
2021/01/23 06:16:33;;;;;;;2.53;1.42;;;14.00;58.70;;;;;;5033228;28;20029;-46
2021/01/23 06:19:05;;;;;;;2.10;1.30;;;14.10;58.60;;;;;;5033839;28;20049;-47
2021/01/23 06:21:46;;;;;;;1.23;1.05;;;13.90;58.30;;;;;;5032885;28;20029;-46
2021/01/23 06:24:18;;;;;;;1.92;1.10;;;14.20;58.40;;;;;;5032951;28;20061;-46
2021/01/23 06:26:53;;;;;;;1.20;1.10;;;14.30;58.40;;;;;;5033015;28;20037;-46
2021/01/23 06:29:41;;;;;;;1.15;1.05;;;14.40;58.30;;;;;;5032731;28;20503;-46
2021/01/23 06:32:19;;;;;;;2.65;1.40;;;14.50;58.20;;;;;;5033081;28;20026;-47
2021/01/23 06:34:53;;;;;;;1.95;1.00;;;14.50;58.10;;;;;;5033119;28;20026;-47
2021/01/23 06:37:29;;;;;;;1.98;1.10;;;14.60;58.00;;;;;;5033052;28;20113;-46
2021/01/23 06:40:14;;;;;;;1.38;0.90;;;14.70;58.00;;;;;;5033019;28;20048;-46
2021/01/23 06:42:47;;;;;;;1.10;0.80;;;14.70;57.90;;;;;;5032697;28;20075;-47
2021/01/23 06:45:20;;;;;;;1.10;0.80;;;14.70;57.80;;;;;;5032927;28;20029;-46
2021/01/23 06:47:57;;;;;;;1.45;0.80;;;14.80;57.80;;;;;;5032556;28;20032;-48
2021/01/23 06:50:42;;;;;;;1.20;1.10;;;14.80;57.70;;;;;;5032820;28;20033;-47
2021/01/23 06:53:22;;;;;;;1.33;1.00;;;14.90;57.70;;;;;;5032426;28;20034;-47
2021/01/23 06:55:54;;;;;;;0.88;0.70;;;14.90;57.60;;;;;;5032748;28;20022;-46
2021/01/23 06:58:28;;;;;;;0.90;0.75;;;14.90;57.60;;;;;;5032243;28;20018;-47
2021/01/23 07:00:58;;;;;;;2.60;1.00;;;14.90;57.60;;;;;;5032642;28;20384;-47
2021/01/23 07:03:27;;;;;;;1.15;0.60;;;14.80;57.40;;;;;;5032448;28;20473;-47
2021/01/23 07:05:54;;;;;;;2.22;1.05;;;14.80;57.40;;;;;;5032433;28;20025;-47
2021/01/23 07:08:21;;;;;;;1.02;0.68;;;14.80;58.00;;;;;;5032153;28;20022;-46
2021/01/23 07:11:02;;;;;;;1.45;0.98;;;14.80;57.50;;;;;;5031255;28;20021;-45
2021/01/23 07:13:27;;;;;;;1.90;1.35;;;14.70;57.50;;;;;;5032407;28;20057;-48
2021/01/23 07:15:53;;;;;;;2.72;1.00;;;14.70;57.50;;;;;;5031266;28;20114;-46
2021/01/23 07:18:25;;;;;;;1.45;1.10;;;14.60;57.40;;;;;;5032649;28;20061;-46
2021/01/23 07:20:50;;;;;;;1.45;0.90;;;14.60;57.40;;;;;;5031587;28;20037;-47
2021/01/23 07:23:16;;;;;;;1.85;1.08;;;14.60;57.50;;;;;;5032335;28;20543;-46
2021/01/23 07:25:42;;;;;;;1.60;1.00;;;14.60;57.50;;;;;;5031403;28;20511;-47
2021/01/23 07:28:08;;;;;;;2.08;1.05;;;14.60;57.60;;;;;;5032269;28;20534;-46
2021/01/23 07:30:34;;;;;;;1.35;1.00;;;14.50;57.60;;;;;;5032041;28;20112;-45
2021/01/23 07:33:00;;;;;;;0.90;0.70;;;14.50;57.70;;;;;;5032129;28;20556;-45
2021/01/23 07:35:25;;;;;;;0.95;0.90;;;14.50;58.00;;;;;;5014109;28;20025;-45
2021/01/23 07:37:53;;;;;;;1.42;0.70;;;14.60;58.00;;;;;;5031679;28;20079;-45
2021/01/23 07:40:24;;;;;;;1.10;0.85;;;14.60;57.90;;;;;;5031976;28;20040;-46
2021/01/23 07:42:51;;;;;;;2.38;0.80;;;14.60;57.90;;;;;;5031998;28;20018;-46
2021/01/23 07:45:20;;;;;;;1.25;0.75;;;14.60;57.90;;;;;;5031957;28;20123;-46
2021/01/23 07:47:55;;;;;;;1.50;0.90;;;14.70;58.00;;;;;;5031905;28;20018;-45
2021/01/23 07:50:21;;;;;;;1.17;0.80;;;14.70;57.90;;;;;;5031686;28;20033;-45
2021/01/23 07:52:47;;;;;;;1.45;1.00;;;14.70;57.60;;;;;;5031905;28;20032;-46
2021/01/23 07:55:13;;;;;;;1.48;0.90;;;14.70;57.70;;;;;;5031927;28;20048;-46
2021/01/23 07:57:39;;;;;;;1.00;0.70;;;14.80;57.80;;;;;;5031943;28;20026;-45
2021/01/23 08:00:08;;;;;;;1.23;0.88;;;14.80;57.80;;;;;;5031499;28;20037;-46
2021/01/23 08:02:54;;;;;;;1.83;1.00;;;14.80;57.80;;;;;;5031800;28;20026;-45
2021/01/23 08:05:21;;;;;;;0.95;0.70;;;14.80;57.70;;;;;;5031045;28;20034;-45
2021/01/23 08:07:47;;;;;;;0.80;0.70;;;14.80;57.60;;;;;;5031838;28;20033;-46
2021/01/23 08:10:20;;;;;;;1.08;0.82;;;14.90;57.40;;;;;;5031746;28;20032;-46
2021/01/23 08:12:56;;;;;;;1.60;1.00;;;14.80;57.50;;;;;;5031586;28;20049;-45
2021/01/23 08:15:29;;;;;;;1.38;1.00;;;14.80;57.40;;;;;;5031370;28;20025;-45
2021/01/23 08:17:56;;;;;;;1.42;1.08;;;14.70;57.40;;;;;;5032563;28;20092;-47
2021/01/23 08:20:32;;;;;;;0.95;0.85;;;14.80;57.50;;;;;;5031543;28;20030;-46
2021/01/23 08:23:11;;;;;;;0.80;0.70;;;14.70;57.60;;;;;;5031831;28;20076;-45
2021/01/23 08:25:51;;;;;;;0.95;0.60;;;14.70;57.50;;;;;;5013731;28;20107;-44
2021/01/23 08:28:33;;;;;;;2.28;0.73;;;14.80;57.70;;;;;;5031573;28;20029;-46
2021/01/23 08:31:23;;;;;;;1.33;0.82;;;14.70;57.50;;;;;;5032091;28;20064;-48
2021/01/23 08:33:57;;;;;;;3.03;0.80;;;14.80;57.50;;;;;;5035275;28;20598;-47
2021/01/23 08:36:28;;;;;;;1.38;0.80;;;15.00;57.90;;;;;;5035200;28;20353;-47
2021/01/23 08:38:55;;;;;;;1.35;0.95;;;14.80;57.90;;;;;;5035330;28;20106;-45
2021/01/23 08:41:21;;;;;;;1.33;0.80;;;14.80;58.40;;;;;;5035281;28;20013;-46
2021/01/23 08:43:47;;;;;;;0.82;0.80;;;15.00;57.70;;;;;;5035031;28;20183;-48
2021/01/23 08:46:12;;;;;;;2.72;1.02;;;14.90;57.60;;;;;;5034663;28;20045;-47
2021/01/23 08:48:38;;;;;;;1.73;0.60;;;14.90;57.60;;;;;;5017073;28;20048;-45
2021/01/23 08:51:03;;;;;;;1.70;0.85;;;14.90;57.40;;;;;;5034708;28;20036;-47
2021/01/23 08:53:29;;;;;;;2.55;0.50;;;15.00;57.40;;;;;;5034907;28;20017;-46
2021/01/23 08:55:54;;;;;;;2.47;0.88;;;14.90;57.30;;;;;;5034924;28;20468;-46
2021/01/23 08:58:20;;;;;;;4.35;1.13;;;15.00;57.40;;;;;;5034560;28;20021;-45
2021/01/23 09:00:45;;;;;;;10.70;1.00;;;15.00;57.40;;;;;;5034364;28;20029;-46
2021/01/23 09:03:11;;;;;;;3.58;0.98;;;15.00;76.30;;;;;;5034694;28;20018;-45
2021/01/23 09:05:36;;;;;;;6.47;1.27;;;14.90;58.00;;;;;;5034328;28;20477;-45
2021/01/23 09:08:02;;;;;;;11.63;1.55;;;15.00;57.80;;;;;;5034332;28;20037;-44
2021/01/23 09:10:28;;;;;;;5.45;1.38;;;15.00;57.70;;;;;;5034238;28;20037;-44
2021/01/23 09:12:54;;;;;;;4.50;0.80;;;15.10;57.60;;;;;;5033581;28;20075;-44
2021/01/23 09:15:19;;;;;;;6.97;1.23;;;15.30;57.60;;;;;;5034547;28;20009;-44
2021/01/23 09:17:46;;;;;;;3.97;1.42;;;15.20;57.50;;;;;;5034897;28;20064;-44
2021/01/23 09:20:12;;;;;;;4.35;1.13;;;15.20;57.30;;;;;;5034256;28;20034;-45
2021/01/23 09:22:37;;;;;;;5.22;1.23;;;15.40;57.20;;;;;;5034375;28;20666;-45
2021/01/23 09:25:04;;;;;;;2.58;0.90;;;15.60;56.80;;;;;;5034010;28;20029;-45
2021/01/23 09:27:29;;;;;;;12.55;1.38;;;15.70;56.60;;;;;;5034226;28;20029;-44
2021/01/23 09:29:55;;;;;;;3.50;0.93;;;15.80;56.40;;;;;;5034396;28;20032;-47
2021/01/23 09:32:21;;;;;;;7.93;1.42;;;15.90;56.20;;;;;;5034016;28;20037;-46
2021/01/23 09:34:47;;;;;;;5.53;1.20;;;16.00;56.10;;;;;;5033948;28;20030;-46
2021/01/23 09:37:13;;;;;;;3.40;1.10;;;16.00;55.90;;;;;;5033896;28;20063;-46
2021/01/23 09:39:39;;;;;;;7.85;1.80;;;16.10;55.80;;;;;;5033905;28;20547;-46
2021/01/23 09:42:05;;;;;;;3.92;1.35;;;16.10;55.60;;;;;;5034055;28;20020;-45
2021/01/23 09:44:30;;;;;;;4.70;1.15;;;16.20;55.50;;;;;;5033371;28;20475;-45
2021/01/23 09:46:56;;;;;;;4.35;0.93;;;16.30;55.50;;;;;;5033673;28;20369;-45
2021/01/23 09:49:22;;;;;;;5.70;0.90;;;16.30;55.50;;;;;;5033718;28;20036;-46
2021/01/23 09:51:48;;;;;;;3.25;1.05;;;16.40;55.40;;;;;;5033694;28;20797;-45
2021/01/23 09:54:13;;;;;;;2.08;1.00;;;16.40;55.20;;;;;;5033878;28;20025;-46
2021/01/23 09:56:39;;;;;;;5.93;1.48;;;16.40;55.60;;;;;;5033536;28;20487;-45
2021/01/23 09:59:05;;;;;;;9.23;1.00;;;16.50;55.50;;;;;;5015749;28;20056;-46
2021/01/23 10:01:30;;;;;;;4.03;1.08;;;16.50;55.10;;;;;;5033650;28;20022;-46
2021/01/23 10:03:56;;;;;;;7.40;0.90;;;16.50;54.90;;;;;;5033164;28;20389;-46
2021/01/23 10:06:22;;;;;;;2.58;0.85;;;16.60;54.80;;;;;;5033030;28;20033;-45
2021/01/23 10:08:48;;;;;;;2.05;0.82;;;16.50;54.60;;;;;;5033188;28;20112;-45
2021/01/23 10:11:13;;;;;;;4.82;0.88;;;16.50;54.60;;;;;;5033486;28;20470;-45
2021/01/23 10:13:39;;;;;;;3.25;0.90;;;16.50;54.60;;;;;;5033267;28;20021;-45
2021/01/23 10:16:04;;;;;;;3.10;0.90;;;16.40;54.60;;;;;;5032981;28;20025;-45
2021/01/23 10:18:35;;;;;;;7.75;0.98;;;16.40;54.60;;;;;;5033542;28;20049;-45
2021/01/23 10:21:04;;;;;;;2.47;0.85;;;16.40;54.70;;;;;;5033034;28;20026;-45
2021/01/23 10:23:30;;;;;;;3.85;1.20;;;16.30;54.70;;;;;;5032869;28;20479;-45
2021/01/23 10:25:56;;;;;;;1.73;0.73;;;16.20;54.80;;;;;;5032692;28;20044;-45
2021/01/23 10:28:22;;;;;;;3.08;0.70;;;16.20;54.90;;;;;;5032826;28;20026;-46
2021/01/23 10:30:47;;;;;;;2.30;0.70;;;16.10;54.90;;;;;;5033062;28;20625;-46
2021/01/23 10:33:13;;;;;;;2.22;1.00;;;16.00;55.00;;;;;;5032584;28;20018;-45
2021/01/23 10:35:38;;;;;;;1.95;0.90;;;16.00;55.00;;;;;;5032493;28;20029;-45
2021/01/23 10:38:04;;;;;;;3.40;1.20;;;16.00;55.00;;;;;;5032715;28;20056;-44
2021/01/23 10:40:30;;;;;;;3.10;0.80;;;15.90;55.10;;;;;;5032539;28;20472;-45
2021/01/23 10:42:55;;;;;;;3.97;0.82;;;15.80;55.20;;;;;;5032874;28;20017;-45
2021/01/23 10:45:21;;;;;;;3.45;0.68;;;15.90;55.40;;;;;;5032367;28;20034;-43
2021/01/23 10:47:47;;;;;;;2.38;0.82;;;15.90;55.30;;;;;;5032537;28;20108;-47
2021/01/23 10:50:13;;;;;;;1.55;0.60;;;15.10;55.00;;;;;;5015109;28;20427;-46
2021/01/23 10:52:38;;;;;;;4.55;0.73;;;15.90;55.50;;;;;;5032491;28;20116;-46
2021/01/23 10:55:05;;;;;;;3.70;0.85;;;16.00;55.50;;;;;;5031488;28;20476;-45
2021/01/23 10:57:30;;;;;;;2.80;0.80;;;15.90;54.60;;;;;;5032105;28;20144;-45
2021/01/23 10:59:56;;;;;;;3.05;0.88;;;16.00;54.80;;;;;;5032470;28;20104;-46
2021/01/23 11:02:21;;;;;;;4.25;1.27;;;16.00;54.60;;;;;;5032337;28;20030;-45
2021/01/23 11:04:47;;;;;;;1.63;0.90;;;15.90;54.80;;;;;;5014611;28;20538;-44
2021/01/23 11:07:13;;;;;;;1.17;0.50;;;16.10;55.00;;;;;;5032566;28;20037;-46
2021/01/23 11:09:38;;;;;;;2.03;0.77;;;16.20;54.80;;;;;;5032359;28;20018;-47
2021/01/23 11:12:04;;;;;;;3.63;1.20;;;16.20;54.80;;;;;;5032497;28;20031;-48
2021/01/23 11:14:30;;;;;;;3.30;0.90;;;16.20;54.90;;;;;;5031941;28;20480;-45
2021/01/23 11:16:56;;;;;;;3.67;0.70;;;16.30;55.80;;;;;;5032238;28;20036;-45
2021/01/23 11:19:21;;;;;;;3.65;0.80;;;16.30;56.20;;;;;;5032827;28;20060;-48
2021/01/23 11:21:47;;;;;;;1.02;0.73;;;16.40;56.90;;;;;;5032253;28;20061;-45
2021/01/23 11:24:12;;;;;;;2.47;0.88;;;16.40;57.90;;;;;;5031958;28;20029;-45
2021/01/23 11:26:38;;;;;;;4.85;1.20;;;16.50;59.50;;;;;;5031899;28;20475;-45
2021/01/23 11:29:04;;;;;;;2.28;0.80;;;16.70;60.60;;;;;;5032086;28;20025;-45
2021/01/23 11:31:29;;;;;;;5.28;2.13;;;16.60;61.00;;;;;;5031883;28;20029;-45
2021/01/23 11:33:55;;;;;;;2.58;0.77;;;16.50;62.20;;;;;;5032142;28;20021;-44
2021/01/23 11:36:21;;;;;;;1.23;0.60;;;16.50;81.80;;;;;;5032009;28;20021;-44
2021/01/23 11:38:47;;;;;;;2.67;1.08;;;16.50;63.10;;;;;;5032054;28;20029;-44
2021/01/23 11:41:12;;;;;;;2.38;0.90;;;16.50;62.70;;;;;;5031983;28;20024;-45
2021/01/23 11:43:38;;;;;;;3.55;1.13;;;16.50;64.00;;;;;;5032062;28;20098;-44
2021/01/23 11:46:04;;;;;;;3.00;0.80;;;16.50;65.20;;;;;;5031876;28;20518;-45
2021/01/23 11:48:30;;;;;;;2.67;0.82;;;16.40;66.10;;;;;;5031794;28;20032;-45
2021/01/23 11:50:57;;;;;;;6.38;1.10;;;16.40;66.20;;;;;;5031735;28;20083;-44
2021/01/23 11:53:23;;;;;;;1.88;0.70;;;16.40;66.30;;;;;;5031897;28;20022;-44
2021/01/23 11:55:49;;;;;;;1.92;0.90;;;16.30;67.40;;;;;;5031853;28;20588;-44
2021/01/23 11:58:15;;;;;;;2.55;1.02;;;16.30;67.90;;;;;;5031878;28;20021;-44
2021/01/23 12:00:41;;;;;;;2.70;1.05;;;16.20;67.90;;;;;;5031946;28;20025;-44
2021/01/23 12:03:07;;;;;;;4.28;1.10;;;16.20;67.90;;;;;;5031653;28;20026;-44
2021/01/23 12:05:33;;;;;;;2.15;0.80;;;16.00;68.50;;;;;;5031470;28;20072;-44
2021/01/23 12:07:59;;;;;;;3.72;0.90;;;16.20;69.10;;;;;;5035103;28;20033;-44
2021/01/23 12:10:24;;;;;;;1.98;0.63;;;16.20;69.30;;;;;;5035523;28;20051;-44
2021/01/23 12:12:50;;;;;;;1.65;0.85;;;16.20;69.30;;;;;;5035358;28;20035;-44
2021/01/23 12:15:16;;;;;;;2.42;0.80;;;16.10;69.90;;;;;;5035218;28;20021;-44
2021/01/23 12:17:43;;;;;;;2.63;0.80;;;16.10;70.20;;;;;;5035184;28;20029;-45
2021/01/23 12:20:10;;;;;;;2.72;0.95;;;16.10;70.20;;;;;;5036065;28;20115;-44
2021/01/23 12:22:37;;;;;;;3.35;0.93;;;16.10;70.50;;;;;;5035600;28;20025;-44
2021/01/23 12:25:07;;;;;;;1.83;1.05;;;16.00;70.60;;;;;;5035333;28;20037;-43
2021/01/23 12:27:36;;;;;;;3.33;0.85;;;16.00;70.90;;;;;;5035296;28;20492;-44
2021/01/23 12:30:10;;;;;;;2.53;1.00;;;16.10;71.00;;;;;;5035269;28;20030;-45
2021/01/23 12:32:37;;;;;;;2.47;0.90;;;16.10;71.00;;;;;;5035225;28;20025;-43
2021/01/23 12:35:05;;;;;;;1.13;0.57;;;16.00;71.30;;;;;;5035184;28;20488;-46
2021/01/23 12:37:30;;;;;;;1.92;0.75;;;16.00;71.40;;;;;;5035210;28;20022;-45
2021/01/23 12:39:57;;;;;;;1.85;1.00;;;16.00;71.40;;;;;;5035038;28;20029;-44
2021/01/23 12:42:27;;;;;;;2.22;0.80;;;16.00;71.50;;;;;;5034706;28;20622;-44
2021/01/23 12:44:53;;;;;;;1.87;0.70;;;16.00;71.60;;;;;;5034595;28;20037;-47
2021/01/23 12:47:19;;;;;;;3.47;0.68;;;16.00;90.00;;;;;;5034514;28;20045;-44
2021/01/23 12:49:44;;;;;;;3.42;1.00;;;16.00;71.80;;;;;;5034925;28;20018;-44
2021/01/23 12:52:10;;;;;;;3.05;1.02;;;16.00;71.70;;;;;;5034989;28;20033;-44
2021/01/23 12:54:36;;;;;;;2.30;0.85;;;16.00;71.90;;;;;;5034563;28;20068;-44